Time;durP1;ratioP1;P1;durP2;ratioP2;P2;SDS_P1;SDS_P2;PMS_P1;PMS_P2;Temp;Humidity;BMP_temperature;BMP_pressure;BME280_temperature;BME280_humidity;BME280_pressure;Samples;Min_cycle;Max_cycle;Signal;HPM_P1;HPM_P2
2022/06/16 00:00:57;;;;;;;;;;;26.30;45.70;;;;;;5075481;28;19908;-61
2022/06/16 00:03:23;;;;;;;;;;;26.30;45.60;;;;;;5075384;28;19909;-60
2022/06/16 00:05:49;;;;;;;;;;;26.30;45.60;;;;;;5075395;28;19912;-60
2022/06/16 00:08:16;;;;;;;;;;;26.30;45.60;;;;;;5057739;28;19991;-60
2022/06/16 00:11:16;;;;;;;;;;;26.30;45.60;;;;;;5090996;28;20387;-61
2022/06/16 00:13:30;;;;;;;;;;;26.30;45.60;;;;;;5075120;28;20375;-61
2022/06/16 00:15:56;;;;;;;;;;;26.30;45.70;;;;;;5075381;28;20360;-61
2022/06/16 00:18:22;;;;;;;;;;;26.30;45.60;;;;;;5075126;28;19909;-61
2022/06/16 00:20:47;;;;;;;;;;;26.20;45.70;;;;;;5074977;28;19916;-61
2022/06/16 00:23:12;;;;;;;;;;;26.30;45.60;;;;;;5075065;28;19919;-60
2022/06/16 00:25:38;;;;;;;;;;;26.30;45.60;;;;;;5075057;28;19908;-60
2022/06/16 00:28:03;;;;;;;;;;;26.20;45.60;;;;;;5090552;28;20416;-61
2022/06/16 00:30:29;;;;;;;;;;;26.20;45.50;;;;;;5074994;28;20365;-61
2022/06/16 00:32:54;;;;;;;;;;;26.20;45.50;;;;;;5074875;28;19948;-60
2022/06/16 00:35:20;;;;;;;;;;;26.30;45.60;;;;;;5074774;28;19912;-61
2022/06/16 00:37:45;;;;;;;;;;;26.30;45.60;;;;;;5075039;28;19916;-61
2022/06/16 00:40:11;;;;;;;;;;;26.20;45.50;;;;;;5073885;28;19916;-61
2022/06/16 00:42:36;;;;;;;;;;;26.20;45.50;;;;;;5074602;28;19916;-61
2022/06/16 00:45:02;;;;;;;;;;;26.20;45.50;;;;;;5074562;28;19954;-61
2022/06/16 00:47:28;;;;;;;;;;;26.20;45.50;;;;;;5056453;28;20017;-61
2022/06/16 00:49:55;;;;;;;;;;;26.20;45.50;;;;;;5090215;28;20330;-61
2022/06/16 00:52:21;;;;;;;;;;;26.20;45.50;;;;;;5074479;28;20368;-60
2022/06/16 00:54:55;;;;;;;;;;;26.20;45.70;;;;;;5074430;28;19908;-61
2022/06/16 00:57:25;;;;;;;;;;;26.20;45.50;;;;;;5056481;28;19923;-61
2022/06/16 00:59:51;;;;;;;;;;;26.20;45.50;;;;;;5056353;28;19915;-60
2022/06/16 01:02:16;;;;;;;;;;;26.20;45.60;;;;;;5056448;28;19908;-60
2022/06/16 01:04:54;;;;;;;;;;;26.20;45.50;;;;;;5074172;28;19909;-61
2022/06/16 01:07:30;;;;;;;;;;;26.20;45.50;;;;;;5074386;28;20437;-60
2022/06/16 01:09:56;;;;;;;;;;;26.20;45.60;;;;;;5056145;28;20383;-60
2022/06/16 01:15:56;;;;;;;;;;;26.20;45.50;;;;;;4993195;28;19924;-60
2022/06/16 01:18:25;;;;;;;;;;;26.20;45.50;;;;;;4992502;28;20327;-60
2022/06/16 01:20:50;;;;;;;;;;;26.20;45.50;;;;;;5025006;28;19908;-60
2022/06/16 01:23:27;;;;;;;;;;;26.10;45.40;;;;;;5073883;28;19908;-61
2022/06/16 01:25:56;;;;;;;;;;;26.10;45.40;;;;;;5073763;28;20034;-61
2022/06/16 01:28:25;;;;;;;;;;;26.20;45.50;;;;;;5073915;28;19908;-60
2022/06/16 01:30:54;;;;;;;;;;;26.20;45.50;;;;;;5055845;28;20383;-61
2022/06/16 01:33:19;;;;;;;;;;;26.10;45.40;;;;;;5073668;28;19952;-61
2022/06/16 01:35:56;;;;;;;;;;;26.10;45.40;;;;;;5073594;28;20392;-61
2022/06/16 01:38:24;;;;;;;;;;;26.10;45.40;;;;;;5089209;28;20402;-61
2022/06/16 01:40:55;;;;;;;;;;;26.10;45.40;;;;;;5055739;28;19909;-61
2022/06/16 01:43:31;;;;;;;;;;;26.10;45.40;;;;;;5055633;28;20356;-61
2022/06/16 01:45:59;;;;;;;;;;;26.10;45.40;;;;;;5055681;28;19912;-61
2022/06/16 01:48:24;;;;;;;;;;;26.10;45.40;;;;;;5055396;28;20396;-61
2022/06/16 01:50:57;;;;;;;;;;;26.10;45.40;;;;;;5055427;28;19940;-61
2022/06/16 01:53:43;;;;;;;;;;;26.10;45.40;;;;;;5055505;28;19933;-61
2022/06/16 01:56:16;;;;;;;;;;;26.10;45.40;;;;;;5072844;28;19916;-61
2022/06/16 01:58:42;;;;;;;;;;;26.10;45.40;;;;;;5062240;28;19915;-61
2022/06/16 02:01:09;;;;;;;;;;;26.10;46.10;;;;;;5072023;28;20296;-61
2022/06/16 02:03:38;;;;;;;;;;;26.10;45.40;;;;;;5055232;28;19914;-61
2022/06/16 02:06:12;;;;;;;;;;;26.10;45.50;;;;;;5055522;28;19916;-61
2022/06/16 02:08:39;;;;;;;;;;;26.10;45.40;;;;;;5055466;28;19915;-60
2022/06/16 02:11:11;;;;;;;;;;;26.10;45.40;;;;;;5055339;28;19908;-60
2022/06/16 02:13:38;;;;;;;;;;;26.00;45.30;;;;;;5073271;28;20288;-61
2022/06/16 02:16:08;;;;;;;;;;;26.10;45.40;;;;;;5055098;28;19961;-60
2022/06/16 02:18:36;;;;;;;;;;;26.00;45.30;;;;;;5055230;28;20449;-60
2022/06/16 02:21:19;;;;;;;;;;;26.00;45.30;;;;;;5072987;28;19916;-60
2022/06/16 02:23:45;;;;;;;;;;;26.00;45.90;;;;;;5072900;28;20392;-61
2022/06/16 02:26:11;;;;;;;;;;;26.00;45.30;;;;;;5073054;28;19934;-60
2022/06/16 02:28:41;;;;;;;;;;;26.00;45.40;;;;;;5073197;28;19932;-60
2022/06/16 02:31:28;;;;;;;;;;;26.00;45.40;;;;;;5073014;28;20380;-61
2022/06/16 02:33:59;;;;;;;;;;;26.00;45.40;;;;;;5072785;28;20011;-60
2022/06/16 02:36:33;;;;;;;;;;;26.00;45.30;;;;;;5054781;28;19973;-60
2022/06/16 02:39:02;;;;;;;;;;;26.00;45.30;;;;;;5072865;28;20432;-61
2022/06/16 02:41:46;;;;;;;;;;;26.00;45.30;;;;;;5054910;28;20013;-61
2022/06/16 02:44:35;;;;;;;;;;;26.00;45.30;;;;;;5072737;28;19999;-61
2022/06/16 02:47:00;;;;;;;;;;;26.00;45.20;;;;;;5061173;28;19912;-61
2022/06/16 02:49:37;;;;;;;;;;;25.90;45.20;;;;;;5072751;28;19908;-61
2022/06/16 02:52:06;;;;;;;;;;;25.90;45.20;;;;;;5054838;28;19919;-60
2022/06/16 02:54:31;;;;;;;;;;;25.90;45.20;;;;;;5072645;28;20402;-61
2022/06/16 02:57:05;;;;;;;;;;;25.90;45.40;;;;;;5072645;28;19948;-60
2022/06/16 03:00:00;;;;;;;;;;;25.90;45.30;;;;;;5054992;28;19915;-61
2022/06/16 03:02:26;;;;;;;;;;;25.90;45.20;;;;;;5042518;28;19954;-61
2022/06/16 03:04:52;;;;;;;;;;;25.90;45.30;;;;;;5076426;28;20326;-61
2022/06/16 03:07:18;;;;;;;;;;;25.90;45.20;;;;;;5076537;28;20366;-60
2022/06/16 03:09:43;;;;;;;;;;;25.90;45.30;;;;;;5058469;28;19928;-60
2022/06/16 03:12:09;;;;;;;;;;;25.90;45.20;;;;;;5076766;28;19954;-60
2022/06/16 03:14:35;;;;;;;;;;;25.90;45.30;;;;;;5076297;28;19908;-60
2022/06/16 03:17:01;;;;;;;;;;;25.90;45.20;;;;;;5076069;28;20326;-60
2022/06/16 03:19:27;;;;;;;;;;;25.90;45.30;;;;;;5091874;28;19951;-61
2022/06/16 03:21:54;;;;;;;;;;;25.90;45.30;;;;;;5076207;28;19919;-61
2022/06/16 03:24:20;;;;;;;;;;;25.90;45.30;;;;;;5091825;28;19912;-60
2022/06/16 03:26:45;;;;;;;;;;;25.90;45.20;;;;;;5076184;28;19912;-61
2022/06/16 03:29:11;;;;;;;;;;;25.90;45.40;;;;;;5058198;28;19931;-60
2022/06/16 03:31:36;;;;;;;;;;;25.90;45.20;;;;;;5057960;28;19970;-61
2022/06/16 03:34:02;;;;;;;;;;;25.90;45.20;;;;;;5075832;28;19912;-61
2022/06/16 03:36:27;;;;;;;;;;;25.90;45.30;;;;;;5091523;28;19913;-61
2022/06/16 03:38:53;;;;;;;;;;;25.80;45.20;;;;;;5091257;28;19951;-61
2022/06/16 03:41:18;;;;;;;;;;;25.80;45.20;;;;;;5075764;28;19957;-61
2022/06/16 03:43:44;;;;;;;;;;;25.80;45.40;;;;;;5057640;28;19915;-61
2022/06/16 03:46:11;;;;;;;;;;;25.80;45.20;;;;;;5057827;28;19908;-60
2022/06/16 03:48:37;;;;;;;;;;;25.80;45.30;;;;;;5075602;28;19916;-61
2022/06/16 03:51:04;;;;;;;;;;;25.80;45.30;;;;;;5075535;28;19919;-61
2022/06/16 03:53:29;;;;;;;;;;;25.80;45.30;;;;;;5075419;28;20003;-60
2022/06/16 03:55:55;;;;;;;;;;;25.80;45.30;;;;;;5057357;28;20024;-61
2022/06/16 03:58:20;;;;;;;;;;;25.80;45.40;;;;;;5075412;28;19952;-61
2022/06/16 04:00:46;;;;;;;;;;;25.70;45.40;;;;;;5075406;28;19954;-60
2022/06/16 04:05:55;;;;;;;;;;;25.70;45.40;;;;;;5060076;28;20395;-61
2022/06/16 04:08:20;;;;;;;;;;;25.70;45.40;;;;;;5057422;28;19908;-61
2022/06/16 04:10:46;;;;;;;;;;;25.70;45.40;;;;;;5075143;28;19916;-60
2022/06/16 04:13:12;;;;;;;;;;;25.60;45.50;;;;;;5075239;28;20296;-60
2022/06/16 04:15:38;;;;;;;;;;;25.60;45.50;;;;;;5073673;28;19918;-61
2022/06/16 04:18:03;;;;;;;;;;;25.60;45.50;;;;;;5075039;28;19913;-60
2022/06/16 04:20:29;;;;;;;;;;;25.60;45.50;;;;;;5075063;28;19908;-60
2022/06/16 04:22:54;;;;;;;;;;;25.60;45.70;;;;;;5074868;28;20422;-60
2022/06/16 04:25:22;;;;;;;;;;;25.60;45.50;;;;;;5056987;28;20418;-60
2022/06/16 04:27:48;;;;;;;;;;;25.60;45.40;;;;;;5074969;28;19908;-60
2022/06/16 04:30:14;;;;;;;;;;;25.60;45.40;;;;;;5074838;28;20368;-60
2022/06/16 04:32:39;;;;;;;;;;;25.60;45.60;;;;;;5090446;28;20003;-60
2022/06/16 04:35:05;;;;;;;;;;;25.60;45.50;;;;;;5074763;28;20403;-60
2022/06/16 04:37:30;;;;;;;;;;;25.60;45.60;;;;;;5074582;28;19920;-60
2022/06/16 04:39:56;;;;;;;;;;;25.60;45.70;;;;;;5074510;28;19915;-60
2022/06/16 04:42:22;;;;;;;;;;;25.60;45.60;;;;;;5074876;28;19916;-60
2022/06/16 04:44:47;;;;;;;;;;;25.60;45.50;;;;;;5074596;28;19915;-60
2022/06/16 04:47:13;;;;;;;;;;;25.60;45.50;;;;;;5074328;28;19999;-60
2022/06/16 04:49:38;;;;;;;;;;;25.60;45.50;;;;;;5074605;28;19950;-60
2022/06/16 04:52:04;;;;;;;;;;;25.60;45.40;;;;;;5074404;28;20360;-60
2022/06/16 04:54:30;;;;;;;;;;;25.50;45.40;;;;;;5074700;28;19909;-61
2022/06/16 04:56:55;;;;;;;;;;;25.60;45.50;;;;;;5074251;28;19955;-60
2022/06/16 04:59:20;;;;;;;;;;;25.60;45.50;;;;;;5074147;28;20005;-60
2022/06/16 05:01:46;;;;;;;;;;;25.60;45.50;;;;;;5074046;28;20283;-60
2022/06/16 05:04:11;;;;;;;;;;;25.60;45.40;;;;;;5074182;28;20379;-61
2022/06/16 05:06:37;;;;;;;;;;;25.50;45.40;;;;;;5074373;28;20022;-60
2022/06/16 05:09:02;;;;;;;;;;;25.50;45.40;;;;;;5073912;28;20384;-61
2022/06/16 05:11:28;;;;;;;;;;;25.50;45.50;;;;;;5056230;28;19978;-61
2022/06/16 05:13:53;;;;;;;;;;;25.50;45.40;;;;;;5073957;28;20092;-60
2022/06/16 05:16:19;;;;;;;;;;;25.50;45.30;;;;;;5073704;28;19959;-60
2022/06/16 05:18:44;;;;;;;;;;;25.50;45.50;;;;;;5089451;28;19909;-60
2022/06/16 05:21:13;;;;;;;;;;;25.50;45.30;;;;;;5089531;28;19909;-61
2022/06/16 05:23:39;;;;;;;;;;;25.50;45.40;;;;;;5055920;28;19909;-60
2022/06/16 05:26:04;;;;;;;;;;;25.50;45.40;;;;;;5073636;28;20276;-60
2022/06/16 05:28:31;;;;;;;;;;;25.50;45.40;;;;;;5073631;28;20422;-61
2022/06/16 05:30:56;;;;;;;;;;;25.50;45.50;;;;;;5055686;28;19908;-61
2022/06/16 05:33:22;;;;;;;;;;;25.50;45.40;;;;;;5055688;28;19916;-60
2022/06/16 05:35:54;;;;;;;;;;;25.50;45.40;;;;;;5089121;28;20399;-60
2022/06/16 05:38:20;;;;;;;;;;;25.40;45.40;;;;;;5073435;28;19922;-60
2022/06/16 05:40:45;;;;;;;;;;;25.40;45.30;;;;;;5073457;28;19912;-60
2022/06/16 05:43:10;;;;;;;;;;;25.40;45.40;;;;;;5073461;28;19943;-60
2022/06/16 05:45:36;;;;;;;;;;;25.40;45.40;;;;;;5073305;28;20395;-60
2022/06/16 05:48:01;;;;;;;;;;;25.50;45.50;;;;;;5073423;28;20388;-61
2022/06/16 05:50:27;;;;;;;;;;;25.40;45.50;;;;;;5073176;28;19909;-61
2022/06/16 05:52:52;;;;;;;;;;;25.40;45.30;;;;;;5073408;28;20152;-60
2022/06/16 05:55:18;;;;;;;;;;;25.40;45.40;;;;;;5088670;28;19908;-60
2022/06/16 05:57:43;;;;;;;;;;;25.40;45.40;;;;;;5073072;28;19913;-61
2022/06/16 06:00:09;;;;;;;;;;;25.40;45.40;;;;;;5073210;28;19912;-60
2022/06/16 06:02:34;;;;;;;;;;;25.40;45.40;;;;;;5073206;28;19909;-61
2022/06/16 06:05:00;;;;;;;;;;;25.40;45.30;;;;;;5073114;28;19999;-61
2022/06/16 06:07:25;;;;;;;;;;;25.40;45.40;;;;;;5088740;28;19916;-61
2022/06/16 06:18:03;;;;;;;;;;;25.40;45.40;;;;;;5079750;28;20434;-60
2022/06/16 06:20:28;;;;;;;;;;;25.40;45.40;;;;;;5073020;28;19912;-60
2022/06/16 06:22:54;;;;;;;;;;;25.40;45.30;;;;;;5054872;28;20373;-60
2022/06/16 06:25:19;;;;;;;;;;;25.40;45.40;;;;;;5072967;28;20279;-61
2022/06/16 06:27:45;;;;;;;;;;;25.40;45.50;;;;;;5088317;28;19970;-60
2022/06/16 06:30:12;;;;;;;;;;;25.40;45.50;;;;;;5055009;28;19915;-61
2022/06/16 06:32:37;;;;;;;;;;;25.40;45.50;;;;;;5072625;28;19931;-60
2022/06/16 06:35:03;;;;;;;;;;;25.40;45.60;;;;;;5072577;28;19912;-60
2022/06/16 06:37:28;;;;;;;;;;;25.40;45.60;;;;;;5088731;28;20003;-60
2022/06/16 06:39:54;;;;;;;;;;;25.40;45.50;;;;;;5076799;28;19909;-61
2022/06/16 06:42:20;;;;;;;;;;;25.40;45.60;;;;;;5077189;28;19999;-61
2022/06/16 06:44:45;;;;;;;;;;;25.40;45.60;;;;;;5076671;28;19999;-61
2022/06/16 06:47:15;;;;;;;;;;;25.40;45.60;;;;;;5076586;28;20025;-60
2022/06/16 06:49:40;;;;;;;;;;;25.40;45.50;;;;;;5065610;28;19958;-61
2022/06/16 06:52:06;;;;;;;;;;;25.40;45.60;;;;;;5092255;28;19908;-61
2022/06/16 06:54:31;;;;;;;;;;;25.40;45.60;;;;;;5076806;28;19908;-61
2022/06/16 06:56:57;;;;;;;;;;;25.40;45.70;;;;;;5076531;28;20342;-61
2022/06/16 06:59:22;;;;;;;;;;;25.40;45.60;;;;;;5076460;28;19908;-60
2022/06/16 07:01:48;;;;;;;;;;;25.40;45.60;;;;;;5058463;28;19916;-61
2022/06/16 07:04:14;;;;;;;;;;;25.40;45.50;;;;;;5058434;28;19912;-61
2022/06/16 07:06:41;;;;;;;;;;;25.40;45.50;;;;;;5058647;28;19971;-61
2022/06/16 07:09:07;;;;;;;;;;;25.40;45.60;;;;;;5058612;28;19916;-61
2022/06/16 07:11:32;;;;;;;;;;;25.40;45.60;;;;;;5076364;28;19908;-61
2022/06/16 07:13:58;;;;;;;;;;;25.40;45.60;;;;;;5076249;28;19917;-61
2022/06/16 07:16:24;;;;;;;;;;;25.40;45.60;;;;;;5076281;28;19920;-61
2022/06/16 07:18:49;;;;;;;;;;;25.40;45.80;;;;;;5076175;28;19908;-61
2022/06/16 07:21:15;;;;;;;;;;;25.40;45.60;;;;;;5076223;28;19908;-60
2022/06/16 07:23:41;;;;;;;;;;;25.40;45.70;;;;;;5076356;28;19948;-61
2022/06/16 07:26:07;;;;;;;;;;;25.40;45.70;;;;;;5075914;28;19958;-61
2022/06/16 07:28:32;;;;;;;;;;;25.40;45.70;;;;;;5076041;28;19908;-61
2022/06/16 07:30:58;;;;;;;;;;;25.40;45.80;;;;;;5075888;28;19917;-60
2022/06/16 07:33:23;;;;;;;;;;;25.40;45.80;;;;;;5075924;28;19912;-60
2022/06/16 07:35:50;;;;;;;;;;;25.40;45.90;;;;;;5075737;28;19913;-61
2022/06/16 07:38:15;;;;;;;;;;;25.40;45.80;;;;;;5074534;28;19958;-61
2022/06/16 07:40:41;;;;;;;;;;;25.40;45.70;;;;;;5075836;28;19908;-60
2022/06/16 07:43:06;;;;;;;;;;;25.40;45.80;;;;;;5075707;28;19915;-60
2022/06/16 07:45:34;;;;;;;;;;;25.50;45.90;;;;;;5075789;28;19916;-61
2022/06/16 07:48:00;;;;;;;;;;;25.50;45.70;;;;;;5075493;28;19924;-60
2022/06/16 07:50:26;;;;;;;;;;;25.50;45.90;;;;;;5075272;28;19916;-62
2022/06/16 07:52:51;;;;;;;;;;;25.50;45.70;;;;;;5075686;28;19908;-60
2022/06/16 07:55:18;;;;;;;;;;;25.50;45.80;;;;;;5075393;28;19908;-60
2022/06/16 07:57:47;;;;;;;;;;;25.50;45.90;;;;;;5075534;28;19927;-61
2022/06/16 08:00:14;;;;;;;;;;;25.50;45.70;;;;;;5057311;28;19912;-61
2022/06/16 08:02:39;;;;;;;;;;;25.60;45.90;;;;;;5057591;28;20368;-61
2022/06/16 08:05:05;;;;;;;;;;;25.60;46.00;;;;;;5075246;28;19915;-61
2022/06/16 08:07:30;;;;;;;;;;;25.60;46.00;;;;;;5075254;28;20003;-61
2022/06/16 08:09:56;;;;;;;;;;;25.60;46.00;;;;;;5090702;28;19951;-61
2022/06/16 08:12:21;;;;;;;;;;;25.60;46.00;;;;;;5075178;28;19921;-61
2022/06/16 08:14:47;;;;;;;;;;;25.60;46.10;;;;;;5075293;28;19909;-61
2022/06/16 08:17:18;;;;;;;;;;;25.60;46.20;;;;;;5074971;28;19912;-61
2022/06/16 08:19:43;;;;;;;;;;;25.60;46.10;;;;;;5057038;28;19909;-61
2022/06/16 08:22:08;;;;;;;;;;;25.50;46.10;;;;;;5074964;28;20300;-61
2022/06/16 08:24:34;;;;;;;;;;;25.60;46.20;;;;;;5090458;28;19909;-60
2022/06/16 08:26:59;;;;;;;;;;;25.50;46.10;;;;;;5056929;28;19908;-61
2022/06/16 08:29:25;;;;;;;;;;;25.50;46.20;;;;;;5056744;28;19913;-61
2022/06/16 08:31:51;;;;;;;;;;;25.50;46.10;;;;;;5075019;28;19952;-60
2022/06/16 08:34:16;;;;;;;;;;;25.50;46.30;;;;;;5057191;28;20271;-60
2022/06/16 08:36:42;;;;;;;;;;;25.40;46.40;;;;;;5074634;28;19939;-60
2022/06/16 08:39:08;;;;;;;;;;;25.40;46.50;;;;;;5074775;28;19954;-61
2022/06/16 08:41:53;;;;;;;;;;;25.40;46.50;;;;;;5074585;28;19915;-61
2022/06/16 08:44:21;;;;;;;;;;;25.40;46.40;;;;;;5074075;28;19934;-61
2022/06/16 08:46:51;;;;;;;;;;;25.50;46.40;;;;;;5056516;28;19962;-61
2022/06/16 08:49:27;;;;;;;;;;;25.50;46.40;;;;;;5056533;28;19917;-60
2022/06/16 08:51:58;;;;;;;;;;;25.50;46.50;;;;;;5056148;28;19938;-60
2022/06/16 08:54:33;;;;;;;;;;;25.50;46.40;;;;;;5074335;28;19913;-60
2022/06/16 08:57:04;;;;;;;;;;;25.50;46.40;;;;;;5074192;28;20011;-61
2022/06/16 08:59:41;;;;;;;;;;;25.60;46.40;;;;;;5074080;28;19955;-60
2022/06/16 09:02:08;;;;;;;;;;;25.60;46.30;;;;;;5055645;28;19909;-61
2022/06/16 09:04:35;;;;;;;;;;;25.60;46.30;;;;;;5073871;28;20307;-61
2022/06/16 09:07:06;;;;;;;;;;;25.60;46.30;;;;;;5073902;28;19908;-61
2022/06/16 09:12:36;;;;;;;;;;;25.60;46.20;;;;;;5058865;28;19916;-61
2022/06/16 09:15:28;;;;;;;;;;;25.60;46.30;;;;;;5073807;28;20435;-61
2022/06/16 09:17:59;;;;;;;;;;;25.60;46.30;;;;;;5050320;28;19998;-60
2022/06/16 09:20:33;;;;;;;;;;;25.60;46.40;;;;;;5074110;28;19960;-61
2022/06/16 09:23:04;;;;;;;;;;;25.60;46.30;;;;;;5073664;28;19908;-61
2022/06/16 09:25:39;;;;;;;;;;;25.50;46.20;;;;;;5073789;28;20332;-60
2022/06/16 09:28:07;;;;;;;;;;;25.50;46.30;;;;;;5073678;28;19919;-60
2022/06/16 09:30:34;;;;;;;;;;;25.60;46.30;;;;;;5073602;28;19962;-60
2022/06/16 09:33:17;;;;;;;;;;;25.50;46.20;;;;;;5055639;28;19908;-61
2022/06/16 09:35:43;;;;;;;;;;;25.50;46.20;;;;;;5055590;28;19912;-61
2022/06/16 09:38:15;;;;;;;;;;;25.50;46.20;;;;;;5073340;28;19958;-61
2022/06/16 09:40:40;;;;;;;;;;;25.50;46.10;;;;;;5073348;28;20414;-60
2022/06/16 09:43:10;;;;;;;;;;;25.50;46.10;;;;;;5073379;28;19912;-61
2022/06/16 09:45:38;;;;;;;;;;;25.60;46.20;;;;;;5038680;28;19909;-61
2022/06/16 09:48:23;;;;;;;;;;;25.60;46.10;;;;;;5055365;28;19927;-60
2022/06/16 09:50:55;;;;;;;;;;;25.60;46.00;;;;;;5073323;28;19908;-61
2022/06/16 09:53:24;;;;;;;;;;;25.60;46.10;;;;;;5073045;28;19913;-61
2022/06/16 09:55:51;;;;;;;;;;;25.60;46.10;;;;;;5073400;28;19924;-61
2022/06/16 09:58:19;;;;;;;;;;;25.60;46.10;;;;;;5073302;28;19955;-61
2022/06/16 10:00:45;;;;;;;;;;;25.60;46.10;;;;;;5073208;28;19912;-61
2022/06/16 10:03:27;;;;;;;;;;;25.70;46.00;;;;;;5055128;28;19915;-61
2022/06/16 10:06:02;;;;;;;;;;;25.60;46.00;;;;;;5062615;28;20419;-61
2022/06/16 10:08:30;;;;;;;;;;;25.70;45.90;;;;;;5072940;28;19908;-61
2022/06/16 10:10:58;;;;;;;;;;;25.70;45.90;;;;;;5073216;28;19908;-60
2022/06/16 10:13:29;;;;;;;;;;;25.70;45.80;;;;;;5055093;28;20003;-61
2022/06/16 10:16:00;;;;;;;;;;;25.70;45.80;;;;;;5073039;28;19913;-60
2022/06/16 10:18:26;;;;;;;;;;;25.70;45.80;;;;;;5071793;28;19908;-60
2022/06/16 10:20:51;;;;;;;;;;;25.80;45.90;;;;;;5072702;28;19931;-61
2022/06/16 10:23:19;;;;;;;;;;;25.80;45.80;;;;;;5054879;28;19938;-61
2022/06/16 10:25:46;;;;;;;;;;;25.80;45.70;;;;;;5054807;28;19913;-61
2022/06/16 10:28:17;;;;;;;;;;;25.80;45.70;;;;;;5055040;28;19952;-61
2022/06/16 10:30:43;;;;;;;;;;;25.80;45.70;;;;;;5072662;28;19915;-61
2022/06/16 10:33:09;;;;;;;;;;;25.80;45.70;;;;;;5073007;28;19908;-61
2022/06/16 10:35:35;;;;;;;;;;;25.80;45.70;;;;;;5072725;28;20003;-60
2022/06/16 10:38:00;;;;;;;;;;;25.80;45.70;;;;;;5054681;28;20291;-61
2022/06/16 10:40:27;;;;;;;;;;;25.90;45.70;;;;;;5088238;28;20265;-60
2022/06/16 10:43:00;;;;;;;;;;;25.90;45.70;;;;;;5038121;28;19916;-61
2022/06/16 10:45:26;;;;;;;;;;;25.80;45.60;;;;;;5072360;28;20387;-60
2022/06/16 10:48:00;;;;;;;;;;;25.80;45.60;;;;;;5087973;28;20556;-60
2022/06/16 10:51:01;;;;;;;;;;;25.90;45.60;;;;;;5072106;28;19914;-61
2022/06/16 10:53:28;;;;;;;;;;;25.90;46.30;;;;;;5010606;28;19910;-60
2022/06/16 10:56:01;;;;;;;;;;;25.90;45.60;;;;;;5060207;28;19971;-60
2022/06/16 10:58:30;;;;;;;;;;;25.90;45.70;;;;;;5079129;28;19951;-61
2022/06/16 11:01:00;;;;;;;;;;;25.90;45.60;;;;;;5072482;28;19909;-61
2022/06/16 11:03:26;;;;;;;;;;;25.90;45.60;;;;;;5054515;28;19909;-61
2022/06/16 11:05:52;;;;;;;;;;;25.90;45.70;;;;;;5072505;28;19908;-61
2022/06/16 11:08:18;;;;;;;;;;;25.90;45.70;;;;;;5054290;28;20003;-60
2022/06/16 11:10:51;;;;;;;;;;;25.90;45.50;;;;;;5072104;28;20364;-61
2022/06/16 11:13:17;;;;;;;;;;;25.90;45.50;;;;;;5054522;28;19954;-61
2022/06/16 11:15:46;;;;;;;;;;;25.90;45.40;;;;;;5070818;28;20289;-61
2022/06/16 11:18:12;;;;;;;;;;;25.90;45.50;;;;;;5072317;28;19954;-60
2022/06/16 11:20:42;;;;;;;;;;;25.90;45.70;;;;;;5072234;28;19913;-60
2022/06/16 11:23:27;;;;;;;;;;;25.90;45.70;;;;;;5072183;28;19908;-61
2022/06/16 11:26:11;;;;;;;;;;;25.90;45.70;;;;;;5075950;28;19909;-61
2022/06/16 11:28:41;;;;;;;;;;;25.90;45.60;;;;;;5057877;28;20041;-61
2022/06/16 11:31:06;;;;;;;;;;;25.90;45.70;;;;;;5075803;28;19916;-60
2022/06/16 11:36:36;;;;;;;;;;;25.90;45.70;;;;;;5060711;28;20000;-61
2022/06/16 11:39:04;;;;;;;;;;;25.90;45.70;;;;;;5075538;28;19962;-61
2022/06/16 11:41:30;;;;;;;;;;;25.90;45.70;;;;;;5075614;28;19914;-61
2022/06/16 11:44:01;;;;;;;;;;;25.90;45.70;;;;;;5057646;28;19909;-61
2022/06/16 11:46:26;;;;;;;;;;;26.00;45.70;;;;;;5057536;28;20082;-60
2022/06/16 11:48:52;;;;;;;;;;;26.00;45.70;;;;;;5057381;28;20003;-61
2022/06/16 11:51:20;;;;;;;;;;;26.00;45.70;;;;;;5075327;28;19955;-61
2022/06/16 11:53:45;;;;;;;;;;;26.00;45.80;;;;;;5075487;28;19916;-61
2022/06/16 11:56:32;;;;;;;;;;;26.00;45.60;;;;;;5075454;28;19950;-61
2022/06/16 11:59:03;;;;;;;;;;;26.00;45.60;;;;;;5082078;28;19947;-60
2022/06/16 12:01:30;;;;;;;;;;;26.00;45.70;;;;;;5075341;28;20035;-60
2022/06/16 12:04:12;;;;;;;;;;;26.00;45.60;;;;;;5057503;28;20379;-61
2022/06/16 12:06:43;;;;;;;;;;;26.00;45.60;;;;;;5057437;28;19931;-61
2022/06/16 12:09:10;;;;;;;;;;;26.00;45.60;;;;;;5057218;28;19981;-60
2022/06/16 12:11:38;;;;;;;;;;;26.00;45.60;;;;;;5057351;28;20390;-60
2022/06/16 12:14:10;;;;;;;;;;;26.00;45.70;;;;;;5075203;28;19923;-61
2022/06/16 12:16:54;;;;;;;;;;;26.10;45.80;;;;;;5057139;28;19916;-60
2022/06/16 12:19:26;;;;;;;;;;;26.10;45.70;;;;;;5057065;28;20324;-60
2022/06/16 12:21:53;;;;;;;;;;;26.10;45.70;;;;;;5074931;28;20011;-61
2022/06/16 12:24:21;;;;;;;;;;;26.10;45.60;;;;;;5057110;28;19916;-61
2022/06/16 12:27:01;;;;;;;;;;;26.10;45.60;;;;;;5074935;28;20351;-60
2022/06/16 12:29:45;;;;;;;;;;;26.10;45.60;;;;;;5073813;28;19909;-61
2022/06/16 12:32:29;;;;;;;;;;;26.10;45.70;;;;;;5074868;28;19908;-61
2022/06/16 12:35:03;;;;;;;;;;;26.00;45.80;;;;;;5073869;28;20021;-61
2022/06/16 12:37:29;;;;;;;;;;;26.00;45.80;;;;;;5056758;28;19912;-61
2022/06/16 12:39:56;;;;;;;;;;;26.00;45.80;;;;;;5074549;28;20276;-60
2022/06/16 12:42:23;;;;;;;;;;;26.10;46.50;;;;;;5074355;28;19909;-61
2022/06/16 12:44:56;;;;;;;;;;;26.10;45.80;;;;;;5056759;28;19952;-61
2022/06/16 12:47:25;;;;;;;;;;;26.10;45.70;;;;;;5073178;28;19951;-60
2022/06/16 12:50:06;;;;;;;;;;;26.10;45.80;;;;;;5074401;28;19932;-60
2022/06/16 12:52:37;;;;;;;;;;;26.10;45.80;;;;;;5074538;28;19908;-60
2022/06/16 12:55:19;;;;;;;;;;;26.10;45.90;;;;;;5056503;28;19909;-61
2022/06/16 12:57:50;;;;;;;;;;;26.10;45.90;;;;;;5056081;28;21301;-60
2022/06/16 13:00:17;;;;;;;;;;;26.10;45.90;;;;;;5056341;28;19948;-61
2022/06/16 13:02:44;;;;;;;;;;;26.10;45.70;;;;;;5056304;28;20303;-61
2022/06/16 13:05:09;;;;;;;;;;;26.10;45.70;;;;;;5074102;28;20335;-60
2022/06/16 13:07:35;;;;;;;;;;;26.10;45.70;;;;;;5073920;28;19909;-60
2022/06/16 13:10:01;;;;;;;;;;;26.10;45.70;;;;;;5056114;28;19974;-60
2022/06/16 13:12:30;;;;;;;;;;;26.10;45.60;;;;;;5055822;28;19909;-61
2022/06/16 13:14:58;;;;;;;;;;;26.10;45.60;;;;;;5073991;28;19948;-60
2022/06/16 13:17:28;;;;;;;;;;;26.20;45.60;;;;;;5073923;28;19913;-60
2022/06/16 13:19:58;;;;;;;;;;;26.20;45.70;;;;;;5073771;28;19909;-60
2022/06/16 13:22:26;;;;;;;;;;;26.20;45.80;;;;;;5073866;28;19999;-60
2022/06/16 13:24:53;;;;;;;;;;;26.20;45.60;;;;;;5073792;28;19959;-60
2022/06/16 13:27:19;;;;;;;;;;;26.30;45.50;;;;;;5056213;28;19916;-60
2022/06/16 13:29:50;;;;;;;;;;;26.30;45.50;;;;;;5073827;28;19912;-60
2022/06/16 13:32:20;;;;;;;;;;;26.30;45.50;;;;;;5073624;28;20293;-60
2022/06/16 13:34:55;;;;;;;;;;;26.30;45.50;;;;;;5055631;28;19909;-60
2022/06/16 13:37:26;;;;;;;;;;;26.20;45.60;;;;;;5055575;28;20388;-60
2022/06/16 13:39:55;;;;;;;;;;;26.30;45.50;;;;;;5073205;28;19931;-60
2022/06/16 13:42:42;;;;;;;;;;;26.40;45.50;;;;;;5073382;28;19915;-60
2022/06/16 13:45:10;;;;;;;;;;;26.40;45.50;;;;;;5062617;28;20040;-60
2022/06/16 13:47:36;;;;;;;;;;;26.40;45.40;;;;;;5073039;28;19916;-60
2022/06/16 13:50:02;;;;;;;;;;;26.50;45.40;;;;;;5055443;28;19936;-60
2022/06/16 13:52:35;;;;;;;;;;;26.50;45.30;;;;;;5089158;28;19948;-60
2022/06/16 13:55:04;;;;;;;;;;;26.50;45.10;;;;;;5055404;28;19908;-60
2022/06/16 13:57:32;;;;;;;;;;;26.60;45.00;;;;;;5055094;28;20324;-60
2022/06/16 13:59:58;;;;;;;;;;;26.60;45.10;;;;;;5072897;28;20413;-60
2022/06/16 14:02:24;;;;;;;;;;;26.60;45.10;;;;;;5055508;28;19978;-60
2022/06/16 14:05:10;;;;;;;;;;;26.70;45.00;;;;;;5055275;28;19908;-61
2022/06/16 14:07:36;;;;;;;;;;;26.60;45.10;;;;;;5072716;28;19948;-60
2022/06/16 14:10:05;;;;;;;;;;;26.60;45.20;;;;;;5035374;28;19913;-60
2022/06/16 14:12:50;;;;;;;;;;;26.60;45.10;;;;;;5035294;28;20004;-60
2022/06/16 14:15:16;;;;;;;;;;;26.50;45.20;;;;;;5053391;28;19915;-63
2022/06/16 14:17:41;;;;;;;;;;;26.50;45.30;;;;;;5053019;28;19913;-63
2022/06/16 14:20:08;;;;;;;;;;;26.50;45.20;;;;;;5053114;28;19944;-63
2022/06/16 14:22:36;;;;;;;;;;;26.50;45.30;;;;;;5051725;28;19916;-63
2022/06/16 14:25:10;;;;;;;;;;;26.50;45.20;;;;;;5035006;28;19969;-62
2022/06/16 14:27:43;;;;;;;;;;;26.60;45.30;;;;;;5035646;28;20372;-61
2022/06/16 14:30:09;;;;;;;;;;;26.60;45.20;;;;;;5052930;28;19963;-61
2022/06/16 14:32:40;;;;;;;;;;;26.70;45.00;;;;;;5035140;28;20019;-62
2022/06/16 14:35:09;;;;;;;;;;;26.70;44.90;;;;;;5052777;28;20408;-61
2022/06/16 14:37:41;;;;;;;;;;;26.70;44.90;;;;;;5052988;28;19966;-61
2022/06/16 14:40:17;;;;;;;;;;;26.70;45.00;;;;;;5052748;28;20334;-62
2022/06/16 14:42:43;;;;;;;;;;;26.70;44.80;;;;;;5052762;28;20395;-61
2022/06/16 14:45:08;;;;;;;;;;;26.70;44.80;;;;;;5035049;28;19909;-62